Miami, Florida
Traffic Map
Current Weather Conditions
Miami, Florida
Broken Clouds
Broken Clouds
77°
Feels Like: 78°
Wind Chill: 77° Ceiling: 25000
Heat Index: 78° Visibility: 10mi
Dew Point: 72° Wind: 8mph
Humidity: 84% Direction: 100° (E)
Pressure: 30.04in Gusts: 0mph
Raw Report DataKMIA 230853Z 10007KT 10SM FEW021 BKN250 25/22 A3004 RMK AO2 SLP173 T02500222 55004
Traffic Incident Summary
Active as of:
Severity:
Category:
InformationThere was an issue retrieving the traffic information for this location. Please try a different location or try again shortly.
Advertisements